Time;durP1;ratioP1;P1;durP2;ratioP2;P2;SDS_P1;SDS_P2;PMS_P1;PMS_P2;Temp;Humidity;BMP_temperature;BMP_pressure;BME280_temperature;BME280_humidity;BME280_pressure;Samples;Min_cycle;Max_cycle;Signal;HPM_P1;HPM_P2
2022/04/11 00:01:03;;;;;;;7.07;2.67;;;3.40;99.90;;;;;;4896786;29;20284;-72
2022/04/11 00:03:30;;;;;;;6.20;2.90;;;3.50;99.90;;;;;;4898207;29;20196;-73
2022/04/11 00:05:57;;;;;;;5.07;3.07;;;3.50;99.90;;;;;;4898202;29;20201;-73
2022/04/11 00:08:23;;;;;;;4.70;3.00;;;3.50;99.90;;;;;;4896693;29;20220;-72
2022/04/11 00:10:50;;;;;;;9.20;3.03;;;3.40;99.90;;;;;;4899376;29;20209;-77
2022/04/11 00:13:17;;;;;;;5.33;2.90;;;3.20;99.90;;;;;;4896954;29;20200;-72
2022/04/11 00:15:44;;;;;;;4.47;2.90;;;3.20;99.90;;;;;;4897245;29;20314;-72
2022/04/11 00:18:10;;;;;;;6.60;3.37;;;3.20;99.90;;;;;;4894544;29;20200;-74
2022/04/11 00:20:37;;;;;;;4.70;3.40;;;3.10;99.90;;;;;;4898539;29;20235;-72
2022/04/11 00:23:04;;;;;;;5.13;3.20;;;3.10;99.90;;;;;;4896819;29;20660;-72
2022/04/11 00:25:31;;;;;;;4.90;3.40;;;3.10;99.90;;;;;;4897081;29;20197;-72
2022/04/11 00:27:58;;;;;;;4.17;3.17;;;3.30;99.90;;;;;;4896888;29;20204;-72
2022/04/11 00:30:25;;;;;;;3.70;2.87;;;3.30;99.90;;;;;;4912542;29;20200;-73
2022/04/11 00:32:52;;;;;;;4.67;3.30;;;3.40;99.90;;;;;;4895357;29;20200;-72
2022/04/11 00:35:18;;;;;;;5.30;3.57;;;3.50;99.90;;;;;;4894888;29;20203;-72
2022/04/11 00:37:45;;;;;;;5.33;3.27;;;3.50;99.90;;;;;;4896319;29;20245;-74
2022/04/11 00:40:11;;;;;;;7.93;3.50;;;3.30;99.90;;;;;;4883778;29;20337;-73
2022/04/11 00:42:38;;;;;;;7.63;3.83;;;3.20;99.90;;;;;;4896124;29;20234;-71
2022/04/11 00:45:06;;;;;;;6.20;2.93;;;3.10;99.90;;;;;;4896593;29;20213;-73
2022/04/11 00:47:33;;;;;;;6.73;3.70;;;3.20;99.90;;;;;;4895462;29;20192;-74
2022/04/11 00:50:07;;;;;;;4.50;3.17;;;3.40;99.90;;;;;;4896048;29;20243;-75
2022/04/11 00:52:37;;;;;;;4.50;3.30;;;3.20;99.90;;;;;;4897882;29;20582;-72
2022/04/11 00:55:07;;;;;;;3.70;2.97;;;3.00;99.90;;;;;;4899818;29;20251;-74
2022/04/11 00:57:34;;;;;;;5.33;3.50;;;2.90;99.90;;;;;;4896785;29;20660;-72
2022/04/11 01:00:04;;;;;;;7.13;3.47;;;3.00;99.90;;;;;;4896500;29;20239;-72
2022/04/11 01:02:31;;;;;;;5.57;3.20;;;3.20;99.90;;;;;;4914473;29;20215;-71
2022/04/11 01:04:58;;;;;;;6.73;3.50;;;3.10;99.90;;;;;;4894313;29;20258;-72
2022/04/11 01:07:25;;;;;;;6.20;3.07;;;3.10;99.90;;;;;;4898147;29;20220;-72
2022/04/11 01:09:51;;;;;;;5.70;3.40;;;3.20;99.90;;;;;;4893870;29;20581;-72
2022/04/11 01:12:18;;;;;;;4.67;2.87;;;3.20;99.90;;;;;;4898513;29;20605;-72
2022/04/11 01:14:45;;;;;;;5.77;3.20;;;3.20;99.90;;;;;;4895823;29;20215;-72
2022/04/11 01:17:12;;;;;;;4.50;2.97;;;3.10;99.90;;;;;;4897409;29;20203;-74
2022/04/11 01:19:38;;;;;;;5.40;3.30;;;3.10;99.90;;;;;;4893801;29;20746;-72
2022/04/11 01:22:05;;;;;;;3.97;3.10;;;3.10;99.90;;;;;;4897895;29;20647;-73
2022/04/11 01:24:34;;;;;;;6.13;3.20;;;3.20;99.90;;;;;;4895145;29;20208;-73
2022/04/11 01:27:00;;;;;;;4.33;3.10;;;3.20;99.90;;;;;;4901368;29;20216;-74
2022/04/11 01:29:27;;;;;;;6.40;3.47;;;3.40;99.90;;;;;;4898056;29;20227;-72
2022/04/11 01:31:54;;;;;;;5.57;3.13;;;3.50;99.90;;;;;;4900610;29;20224;-74
2022/04/11 01:34:21;;;;;;;4.30;2.97;;;3.60;99.90;;;;;;4895587;29;20208;-72
2022/04/11 01:36:48;;;;;;;4.03;2.83;;;3.60;99.90;;;;;;4896606;29;20203;-73
2022/04/11 01:39:15;;;;;;;5.80;2.90;;;3.60;99.90;;;;;;4896011;29;20242;-72
2022/04/11 01:41:42;;;;;;;4.07;3.00;;;3.50;99.90;;;;;;4895111;29;20215;-72
2022/04/11 01:44:08;;;;;;;4.90;3.40;;;3.60;99.90;;;;;;4909475;29;20203;-75
2022/04/11 01:46:35;;;;;;;5.93;2.77;;;3.50;99.90;;;;;;4897702;29;20211;-72
2022/04/11 01:49:02;;;;;;;4.77;3.00;;;3.50;99.90;;;;;;4905994;29;20314;-73
2022/04/11 01:51:28;;;;;;;3.90;3.13;;;3.70;99.90;;;;;;4898108;29;20204;-72
2022/04/11 01:53:55;;;;;;;5.93;3.37;;;3.80;99.90;;;;;;4892944;29;20644;-74
2022/04/11 01:56:22;;;;;;;3.90;2.93;;;3.70;99.90;;;;;;4894199;29;20200;-72
2022/04/11 01:58:48;;;;;;;4.40;3.20;;;3.70;99.90;;;;;;4898129;29;20242;-72
2022/04/11 02:01:18;;;;;;;5.00;3.27;;;3.70;99.90;;;;;;4898143;29;20220;-75
2022/04/11 02:03:45;;;;;;;4.03;2.70;;;3.70;99.90;;;;;;4891948;29;20823;-72
2022/04/11 02:06:12;;;;;;;4.87;3.17;;;3.70;99.90;;;;;;4893365;29;20209;-73
2022/04/11 02:08:38;;;;;;;4.77;3.07;;;3.80;99.90;;;;;;4895598;29;20217;-72
2022/04/11 02:11:05;;;;;;;7.70;3.90;;;3.80;99.90;;;;;;4901230;29;20264;-72
2022/04/11 02:13:32;;;;;;;7.73;4.07;;;3.80;99.90;;;;;;4895271;29;20274;-74
2022/04/11 02:15:59;;;;;;;8.03;3.70;;;3.90;99.90;;;;;;4899972;29;20260;-74
2022/04/11 02:18:27;;;;;;;7.13;3.60;;;3.90;99.90;;;;;;4897677;29;20222;-74
2022/04/11 02:20:53;;;;;;;8.20;3.43;;;3.90;99.90;;;;;;4895048;29;20206;-72
2022/04/11 02:23:20;;;;;;;7.07;3.80;;;3.80;99.90;;;;;;4891411;29;20208;-72
2022/04/11 02:25:47;;;;;;;4.83;3.40;;;3.90;99.90;;;;;;4895277;29;20569;-72
2022/04/11 02:28:14;;;;;;;6.60;3.33;;;4.00;99.90;;;;;;4894344;29;20201;-71
2022/04/11 02:30:40;;;;;;;5.80;3.50;;;4.10;99.90;;;;;;4894539;29;20572;-72
2022/04/11 02:33:08;;;;;;;5.33;3.40;;;4.00;99.90;;;;;;4894269;29;20724;-72
2022/04/11 02:35:34;;;;;;;7.33;3.90;;;4.10;99.90;;;;;;4894074;29;20209;-74
2022/04/11 02:38:01;;;;;;;5.73;3.37;;;4.10;99.90;;;;;;4894609;29;20242;-75
2022/04/11 02:40:28;;;;;;;9.63;3.67;;;4.20;99.90;;;;;;4892712;29;20227;-72
2022/04/11 02:42:54;;;;;;;4.63;3.00;;;4.10;99.90;;;;;;4897713;29;20247;-75
2022/04/11 02:45:21;;;;;;;5.37;3.47;;;4.20;99.90;;;;;;4897662;29;20204;-73
2022/04/11 02:47:48;;;;;;;5.17;3.37;;;4.20;99.90;;;;;;4891068;29;20287;-73
2022/04/11 02:50:14;;;;;;;5.37;3.97;;;4.20;99.90;;;;;;4894442;29;20212;-70
2022/04/11 02:52:41;;;;;;;4.57;3.50;;;4.20;99.90;;;;;;4895035;29;20205;-72
2022/04/11 02:55:08;;;;;;;5.53;3.70;;;4.20;99.90;;;;;;4896747;29;20217;-72
2022/04/11 02:57:38;;;;;;;6.70;3.30;;;4.20;99.90;;;;;;4892488;29;20205;-74
2022/04/11 03:00:07;;;;;;;5.67;3.67;;;4.10;99.90;;;;;;4905464;29;20750;-73
2022/04/11 03:02:34;;;;;;;6.87;4.00;;;4.10;99.90;;;;;;4891499;29;20234;-72
2022/04/11 03:05:02;;;;;;;7.73;3.57;;;4.10;99.90;;;;;;4891807;29;20206;-72
2022/04/11 03:07:29;;;;;;;6.93;3.80;;;4.00;99.90;;;;;;4895463;29;20209;-73
2022/04/11 03:09:56;;;;;;;5.70;3.23;;;4.00;99.90;;;;;;4893203;29;20225;-72
2022/04/11 03:12:24;;;;;;;5.97;3.43;;;3.90;99.90;;;;;;4896799;29;20200;-72
2022/04/11 03:14:52;;;;;;;4.97;3.57;;;4.10;99.90;;;;;;4889351;29;20658;-75
2022/04/11 03:17:18;;;;;;;4.93;3.20;;;4.10;99.90;;;;;;4894400;29;20202;-73
2022/04/11 03:19:45;;;;;;;7.83;4.00;;;4.00;99.90;;;;;;4893096;29;20578;-72
2022/04/11 03:22:11;;;;;;;6.33;3.53;;;4.20;99.90;;;;;;4909526;29;20228;-75
2022/04/11 03:24:39;;;;;;;10.10;4.00;;;4.30;99.90;;;;;;4892179;29;20206;-73
2022/04/11 03:27:05;;;;;;;6.13;3.53;;;4.20;99.90;;;;;;4893496;29;20206;-72
2022/04/11 03:29:32;;;;;;;5.47;3.77;;;4.10;99.90;;;;;;4891621;29;20629;-72
2022/04/11 03:31:59;;;;;;;6.20;4.27;;;4.00;99.90;;;;;;4896017;29;20212;-73
2022/04/11 03:34:26;;;;;;;6.63;3.60;;;4.00;99.90;;;;;;4892399;29;20585;-72
2022/04/11 03:36:52;;;;;;;10.20;4.10;;;3.90;99.90;;;;;;4895834;29;20213;-74
2022/04/11 03:39:19;;;;;;;5.33;3.90;;;3.80;99.90;;;;;;4895143;29;20223;-72
2022/04/11 03:41:46;;;;;;;6.30;4.17;;;3.80;99.90;;;;;;4891934;29;20224;-72
2022/04/11 03:44:13;;;;;;;6.33;3.83;;;3.80;99.90;;;;;;4912395;29;20198;-75
2022/04/11 03:46:42;;;;;;;7.97;3.90;;;3.80;99.90;;;;;;4895735;29;20213;-72
2022/04/11 03:49:08;;;;;;;11.17;4.67;;;3.80;99.90;;;;;;4894585;29;20573;-74
2022/04/11 03:51:35;;;;;;;6.30;3.40;;;4.00;99.90;;;;;;4897551;29;20210;-74
2022/04/11 03:54:02;;;;;;;5.53;3.67;;;4.10;99.90;;;;;;4890575;29;20593;-73
2022/04/11 03:56:28;;;;;;;6.83;4.00;;;4.00;99.90;;;;;;4893673;29;20200;-75
2022/04/11 03:58:55;;;;;;;6.20;3.77;;;3.90;99.90;;;;;;4892090;29;21175;-73
2022/04/11 04:01:22;;;;;;;7.23;4.10;;;3.90;99.90;;;;;;4894560;29;20256;-72
2022/04/11 04:03:49;;;;;;;6.30;3.93;;;3.80;99.90;;;;;;4898056;29;20239;-74
2022/04/11 04:06:15;;;;;;;9.47;4.13;;;3.80;99.90;;;;;;4896796;29;20203;-72
2022/04/11 04:08:42;;;;;;;7.37;4.17;;;3.70;99.90;;;;;;4916188;29;20267;-74
2022/04/11 04:11:10;;;;;;;9.03;4.47;;;3.80;99.90;;;;;;4892942;29;20208;-72
2022/04/11 04:13:36;;;;;;;5.67;4.27;;;3.70;99.90;;;;;;4892518;29;20196;-74
2022/04/11 04:16:04;;;;;;;7.00;4.13;;;3.70;99.90;;;;;;4895097;29;20212;-74
2022/04/11 04:18:31;;;;;;;9.53;4.60;;;3.60;99.90;;;;;;4894660;29;20220;-74
2022/04/11 04:20:58;;;;;;;7.07;4.43;;;3.60;99.90;;;;;;4895253;29;20216;-72
2022/04/11 04:23:26;;;;;;;7.13;3.87;;;3.50;99.90;;;;;;4898369;29;20700;-73
2022/04/11 04:25:52;;;;;;;6.17;4.10;;;3.40;99.90;;;;;;4897586;29;20572;-75
2022/04/11 04:28:19;;;;;;;8.07;4.70;;;3.40;99.90;;;;;;4892615;29;20308;-74
2022/04/11 04:30:49;;;;;;;8.80;4.77;;;3.30;99.90;;;;;;4896448;29;20198;-72
2022/04/11 04:33:16;;;;;;;6.97;4.40;;;3.20;99.90;;;;;;4897204;29;20207;-77
2022/04/11 04:35:43;;;;;;;6.83;4.23;;;3.20;99.90;;;;;;4892889;29;20200;-72
2022/04/11 04:38:10;;;;;;;7.27;4.20;;;3.20;99.90;;;;;;4893961;29;20439;-74
2022/04/11 04:40:37;;;;;;;8.13;4.37;;;3.20;99.90;;;;;;4892427;29;20211;-72
2022/04/11 04:43:04;;;;;;;7.20;4.80;;;3.10;99.90;;;;;;4896197;29;20713;-72
2022/04/11 04:45:31;;;;;;;6.83;4.67;;;3.10;99.90;;;;;;4894740;29;20196;-72
2022/04/11 04:47:58;;;;;;;8.40;4.73;;;3.10;99.90;;;;;;4897972;29;20201;-72
2022/04/11 04:50:24;;;;;;;8.70;4.70;;;3.10;99.90;;;;;;4894474;29;20229;-76
2022/04/11 04:52:51;;;;;;;8.07;4.67;;;3.10;99.90;;;;;;4894838;29;20208;-72
2022/04/11 04:55:18;;;;;;;6.20;4.63;;;3.00;99.90;;;;;;4892990;29;20203;-72
2022/04/11 04:57:45;;;;;;;8.53;4.47;;;3.00;99.90;;;;;;4893696;29;20758;-73
2022/04/11 05:00:12;;;;;;;7.87;4.80;;;3.20;99.90;;;;;;4911204;29;20239;-72
2022/04/11 05:02:40;;;;;;;7.77;4.63;;;3.10;99.90;;;;;;4896471;29;20228;-71
2022/04/11 05:05:08;;;;;;;7.13;4.80;;;3.10;99.90;;;;;;4893643;29;20210;-72
2022/04/11 05:07:35;;;;;;;7.77;4.63;;;3.10;99.90;;;;;;4898280;29;20197;-73
2022/04/11 05:10:08;;;;;;;8.50;4.90;;;3.00;99.90;;;;;;4894887;29;20293;-73
2022/04/11 05:12:43;;;;;;;7.80;5.30;;;3.00;99.90;;;;;;4909863;29;20205;-74
2022/04/11 05:15:11;;;;;;;12.93;5.47;;;2.90;99.90;;;;;;4896753;29;20625;-74
2022/04/11 05:17:38;;;;;;;10.37;5.60;;;2.90;99.90;;;;;;4895121;29;20203;-70
2022/04/11 05:20:06;;;;;;;9.20;5.60;;;3.00;99.90;;;;;;4895949;29;20688;-69
2022/04/11 05:22:33;;;;;;;10.83;6.63;;;2.80;99.90;;;;;;4889141;29;20219;-72
2022/04/11 05:25:00;;;;;;;11.57;6.37;;;2.80;99.90;;;;;;4893979;29;20196;-70
2022/04/11 05:27:26;;;;;;;11.97;6.33;;;2.90;99.90;;;;;;4896660;29;20611;-68
2022/04/11 05:29:53;;;;;;;10.90;6.33;;;2.90;99.90;;;;;;4896139;29;20472;-69
2022/04/11 05:32:20;;;;;;;8.97;5.77;;;2.90;99.90;;;;;;4894829;29;20294;-69
2022/04/11 05:34:46;;;;;;;13.37;6.57;;;2.90;99.90;;;;;;4895171;29;20601;-69
2022/04/11 05:37:13;;;;;;;10.80;6.03;;;3.00;99.90;;;;;;4900102;29;20671;-70
2022/04/11 05:39:40;;;;;;;10.97;6.43;;;3.00;99.90;;;;;;4894560;29;20223;-71
2022/04/11 05:42:07;;;;;;;10.57;6.83;;;3.10;99.90;;;;;;4895575;29;20295;-71
2022/04/11 05:44:33;;;;;;;12.27;7.27;;;3.20;99.90;;;;;;4891999;29;20203;-70
2022/04/11 05:47:00;;;;;;;14.43;7.00;;;3.40;99.90;;;;;;4895882;29;20291;-72
2022/04/11 05:49:27;;;;;;;12.83;7.53;;;3.60;99.90;;;;;;4895148;29;20216;-72
2022/04/11 05:51:54;;;;;;;14.73;8.63;;;3.80;99.90;;;;;;4898177;29;20200;-74
2022/04/11 05:54:20;;;;;;;10.83;7.10;;;4.00;99.90;;;;;;4892807;29;20200;-72
2022/04/11 05:56:47;;;;;;;16.57;7.47;;;4.20;99.90;;;;;;4893566;29;20197;-72
2022/04/11 05:59:14;;;;;;;11.83;7.77;;;4.40;99.90;;;;;;4893348;29;20228;-70
2022/04/11 06:01:40;;;;;;;15.53;8.40;;;4.60;99.90;;;;;;4891731;29;20248;-71
2022/04/11 06:04:07;;;;;;;16.17;8.77;;;4.70;99.90;;;;;;4897789;29;20228;-74
2022/04/11 06:06:35;;;;;;;20.03;10.17;;;4.90;99.90;;;;;;4892333;29;20208;-68
2022/04/11 06:09:04;;;;;;;16.57;9.27;;;5.00;99.90;;;;;;4895040;29;20242;-71
2022/04/11 06:11:31;;;;;;;16.43;7.73;;;5.10;99.90;;;;;;4894352;29;20216;-70
2022/04/11 06:13:57;;;;;;;12.00;7.00;;;5.30;99.90;;;;;;4894440;29;20207;-69
2022/04/11 06:16:24;;;;;;;10.03;6.70;;;5.40;99.90;;;;;;4895107;29;20214;-72
2022/04/11 06:18:51;;;;;;;12.47;6.60;;;5.50;99.90;;;;;;4894195;29;20718;-70
2022/04/11 06:21:20;;;;;;;12.93;6.93;;;5.50;99.90;;;;;;4893985;29;20205;-74
2022/04/11 06:23:47;;;;;;;12.90;6.53;;;5.60;99.90;;;;;;4900687;29;20704;-69
2022/04/11 06:26:14;;;;;;;10.73;7.30;;;5.60;99.90;;;;;;4896588;29;20240;-69
2022/04/11 06:28:41;;;;;;;16.43;7.27;;;5.80;99.90;;;;;;4894231;29;20228;-70
2022/04/11 06:31:10;;;;;;;12.63;7.20;;;5.90;99.90;;;;;;4926604;29;21761;-71
2022/04/11 06:33:38;;;;;;;17.50;7.53;;;6.20;99.90;;;;;;4893365;29;20630;-72
2022/04/11 06:36:04;;;;;;;16.20;7.53;;;6.40;99.90;;;;;;4897206;29;20195;-70
2022/04/11 06:38:31;;;;;;;16.23;7.80;;;6.60;99.90;;;;;;4888494;29;20228;-70
2022/04/11 06:40:58;;;;;;;16.43;7.77;;;6.70;99.90;;;;;;4891139;29;20201;-72
2022/04/11 06:43:25;;;;;;;16.13;8.40;;;6.80;99.90;;;;;;4887929;29;20234;-74
2022/04/11 06:45:52;;;;;;;16.23;9.20;;;6.90;99.90;;;;;;4888869;29;20687;-71
2022/04/11 06:48:18;;;;;;;21.93;8.20;;;7.00;99.90;;;;;;4893662;29;20303;-73
2022/04/11 06:50:45;;;;;;;12.50;7.33;;;7.00;99.90;;;;;;4893596;29;20619;-74
2022/04/11 06:53:15;;;;;;;16.03;7.47;;;7.10;99.90;;;;;;4893750;29;20470;-69
2022/04/11 06:55:44;;;;;;;20.83;8.00;;;7.20;99.90;;;;;;4886909;29;20213;-71
2022/04/11 06:58:11;;;;;;;18.83;8.07;;;7.30;99.90;;;;;;4886566;29;20214;-71
2022/04/11 07:00:37;;;;;;;13.37;8.03;;;7.30;99.90;;;;;;4885525;29;20226;-71
2022/04/11 07:03:04;;;;;;;15.23;8.50;;;7.30;99.90;;;;;;4893466;29;20234;-69
2022/04/11 07:05:31;;;;;;;16.00;8.20;;;7.30;99.90;;;;;;4889404;29;20241;-69
2022/04/11 07:07:58;;;;;;;12.53;7.53;;;7.40;99.90;;;;;;4886595;29;20203;-72
2022/04/11 07:10:24;;;;;;;12.87;7.07;;;7.50;99.90;;;;;;4892675;29;20204;-70
2022/04/11 07:12:51;;;;;;;18.30;7.20;;;7.60;99.90;;;;;;4891943;29;20207;-70
2022/04/11 07:15:18;;;;;;;11.47;6.17;;;7.70;99.90;;;;;;4910915;29;20248;-69
2022/04/11 07:17:44;;;;;;;13.93;6.73;;;8.00;99.90;;;;;;4894509;29;20199;-69
2022/04/11 07:20:12;;;;;;;12.30;6.43;;;8.30;99.90;;;;;;4892309;29;20220;-69
2022/04/11 07:22:38;;;;;;;10.67;5.57;;;8.60;99.90;;;;;;4892494;29;20709;-70
2022/04/11 07:25:05;;;;;;;7.27;4.53;;;8.90;99.90;;;;;;4894441;29;20203;-73
2022/04/11 07:27:32;;;;;;;7.60;4.50;;;9.10;99.90;;;;;;4890407;29;20201;-70
2022/04/11 07:29:58;;;;;;;8.13;4.33;;;9.30;99.90;;;;;;4890218;29;20227;-70
2022/04/11 07:32:25;;;;;;;7.30;4.50;;;9.40;99.90;;;;;;4889159;29;20563;-71
2022/04/11 07:34:52;;;;;;;6.93;4.67;;;9.60;99.90;;;;;;4882157;29;20199;-74
2022/04/11 07:37:19;;;;;;;7.63;4.83;;;9.70;99.90;;;;;;4890537;29;20571;-70
2022/04/11 07:39:46;;;;;;;8.00;4.27;;;9.60;99.90;;;;;;4891205;29;20216;-71
2022/04/11 07:42:12;;;;;;;8.43;4.07;;;9.70;99.90;;;;;;4889769;29;20204;-69
2022/04/11 07:44:39;;;;;;;7.93;4.20;;;9.90;99.90;;;;;;4891369;29;20296;-69
2022/04/11 07:47:06;;;;;;;6.50;3.80;;;10.00;99.90;;;;;;4887889;29;20204;-72
2022/04/11 07:49:32;;;;;;;5.70;4.00;;;10.10;99.90;;;;;;4890661;29;20235;-71
2022/04/11 07:51:59;;;;;;;8.27;4.70;;;10.20;99.90;;;;;;4886989;29;20219;-68
2022/04/11 07:54:26;;;;;;;7.50;4.33;;;10.20;99.90;;;;;;4894975;29;20218;-70
2022/04/11 07:56:52;;;;;;;6.60;3.80;;;10.30;99.90;;;;;;4894820;29;20208;-70
2022/04/11 07:59:19;;;;;;;8.07;4.10;;;10.30;99.90;;;;;;4896015;29;20230;-72
2022/04/11 08:01:46;;;;;;;7.63;4.10;;;10.30;99.90;;;;;;4895269;29;20700;-70
2022/04/11 08:04:13;;;;;;;7.70;5.03;;;10.40;99.90;;;;;;4905773;29;20229;-70
2022/04/11 08:06:39;;;;;;;7.73;4.70;;;10.50;99.90;;;;;;4896724;29;20192;-67
2022/04/11 08:09:06;;;;;;;6.90;3.93;;;10.50;99.90;;;;;;4890003;29;20243;-71
2022/04/11 08:11:32;;;;;;;8.10;4.50;;;10.60;99.90;;;;;;4894266;29;20200;-72
2022/04/11 08:13:59;;;;;;;6.97;4.20;;;10.50;99.90;;;;;;4895960;29;20205;-70
2022/04/11 08:16:26;;;;;;;8.27;4.50;;;10.50;99.90;;;;;;4899209;29;20585;-70
2022/04/11 08:18:53;;;;;;;6.40;4.23;;;10.60;99.90;;;;;;4891036;29;20244;-72
2022/04/11 08:21:19;;;;;;;8.63;4.53;;;10.70;99.90;;;;;;4896935;29;20216;-71
2022/04/11 08:23:46;;;;;;;5.73;4.30;;;10.80;99.90;;;;;;4895680;29;20212;-69
2022/04/11 08:26:13;;;;;;;6.60;4.37;;;10.90;99.90;;;;;;4891465;29;20212;-70
2022/04/11 08:28:40;;;;;;;6.97;4.23;;;11.10;99.90;;;;;;4898870;29;20220;-70
2022/04/11 08:31:07;;;;;;;8.43;4.80;;;11.20;99.90;;;;;;4893062;29;20201;-69
2022/04/11 08:33:34;;;;;;;7.87;4.30;;;11.20;99.90;;;;;;4914016;29;20684;-71
2022/04/11 08:36:00;;;;;;;6.63;4.23;;;11.40;99.90;;;;;;4895240;29;20206;-71
2022/04/11 08:38:27;;;;;;;5.73;4.07;;;11.50;99.90;;;;;;4896213;29;20233;-74
2022/04/11 08:40:55;;;;;;;6.67;4.50;;;11.70;99.90;;;;;;4897934;29;20207;-71
2022/04/11 08:43:23;;;;;;;7.93;4.57;;;11.80;99.90;;;;;;4894938;29;20620;-74
2022/04/11 08:45:53;;;;;;;9.17;4.63;;;11.70;99.90;;;;;;4893628;29;20281;-71
2022/04/11 08:48:24;;;;;;;9.47;4.87;;;11.40;99.90;;;;;;4897708;29;20231;-73
2022/04/11 08:50:51;;;;;;;10.70;4.63;;;11.30;99.90;;;;;;4891719;29;20196;-75
2022/04/11 08:53:22;;;;;;;9.10;3.80;;;11.40;99.90;;;;;;4897200;29;20269;-74
2022/04/11 08:55:50;;;;;;;7.73;4.23;;;11.50;99.90;;;;;;4902842;29;20235;-71
2022/04/11 08:58:17;;;;;;;7.53;4.40;;;11.60;99.90;;;;;;4897215;29;20226;-71
2022/04/11 09:00:45;;;;;;;5.23;3.83;;;11.80;99.90;;;;;;4903188;29;20375;-77
2022/04/11 09:03:11;;;;;;;4.53;3.47;;;12.10;99.90;;;;;;4904097;29;20226;-74
2022/04/11 09:05:39;;;;;;;7.90;4.10;;;12.30;99.90;;;;;;4898976;29;20196;-76
2022/04/11 09:08:06;;;;;;;4.27;3.30;;;12.30;99.90;;;;;;4905283;29;20329;-71
2022/04/11 09:10:37;;;;;;;7.83;3.53;;;12.40;99.90;;;;;;4888571;29;20211;-72
2022/04/11 09:13:06;;;;;;;5.53;3.37;;;12.30;99.90;;;;;;4893449;29;20207;-72
2022/04/11 09:15:45;;;;;;;4.67;2.97;;;12.50;99.90;;;;;;4905448;29;20218;-71
2022/04/11 09:18:11;;;;;;;4.47;3.10;;;12.60;99.90;;;;;;4896215;29;20219;-68
2022/04/11 09:20:41;;;;;;;6.47;3.27;;;12.70;99.90;;;;;;4897593;29;20207;-71
2022/04/11 09:23:18;;;;;;;7.27;3.40;;;12.90;99.90;;;;;;4908474;29;20263;-74
2022/04/11 09:25:44;;;;;;;5.83;3.57;;;13.00;99.90;;;;;;4896753;29;20197;-74
2022/04/11 09:28:12;;;;;;;6.00;3.93;;;13.00;99.90;;;;;;4902648;29;20208;-78
2022/04/11 09:30:40;;;;;;;6.60;3.90;;;13.00;99.90;;;;;;4894132;29;20202;-79
2022/04/11 09:33:09;;;;;;;5.70;3.50;;;13.00;99.90;;;;;;4901217;29;20226;-77
2022/04/11 09:35:40;;;;;;;6.40;3.23;;;13.20;99.90;;;;;;4899887;29;20205;-77
2022/04/11 09:38:13;;;;;;;4.93;3.00;;;13.40;99.90;;;;;;4903720;29;20208;-77
2022/04/11 09:40:48;;;;;;;3.50;2.80;;;13.60;99.90;;;;;;4903021;29;20207;-78
2022/04/11 09:43:16;;;;;;;4.77;2.67;;;13.70;99.90;;;;;;4903574;29;20787;-72
2022/04/11 09:45:48;;;;;;;6.23;2.73;;;13.90;99.90;;;;;;4897792;29;20259;-72
2022/04/11 09:48:21;;;;;;;5.27;3.00;;;13.90;99.90;;;;;;4894740;29;20768;-72
2022/04/11 09:50:49;;;;;;;5.90;3.00;;;14.00;99.90;;;;;;4896077;29;20286;-72
2022/04/11 09:53:19;;;;;;;7.07;2.70;;;14.10;99.90;;;;;;4903682;29;20745;-72
2022/04/11 09:55:48;;;;;;;3.73;2.23;;;14.20;99.90;;;;;;4899182;29;20215;-70
2022/04/11 09:58:16;;;;;;;3.97;2.50;;;14.30;99.90;;;;;;4903045;29;20204;-73
2022/04/11 10:00:44;;;;;;;4.33;2.63;;;14.50;99.90;;;;;;4905531;29;20240;-69
2022/04/11 10:03:11;;;;;;;5.30;2.70;;;14.40;99.90;;;;;;4900111;29;20208;-72
2022/04/11 10:05:39;;;;;;;6.70;2.90;;;14.40;99.90;;;;;;4902016;29;20207;-71
2022/04/11 10:08:10;;;;;;;4.90;2.97;;;14.50;99.90;;;;;;4906347;29;20199;-72
2022/04/11 10:10:39;;;;;;;4.80;2.90;;;14.60;99.90;;;;;;4904769;29;20232;-70
2022/04/11 10:13:07;;;;;;;6.30;2.27;;;14.80;99.90;;;;;;4900570;29;20214;-72
2022/04/11 10:15:36;;;;;;;3.23;2.50;;;14.90;99.90;;;;;;4903014;29;20589;-73
2022/04/11 10:18:04;;;;;;;4.07;2.50;;;15.00;99.90;;;;;;4902555;29;20283;-69
2022/04/11 10:20:42;;;;;;;5.83;3.57;;;15.10;99.90;;;;;;4907739;29;20264;-70
2022/04/11 10:23:38;;;;;;;5.53;2.50;;;15.10;99.90;;;;;;4895030;29;20220;-72
2022/04/11 10:26:16;;;;;;;3.90;2.47;;;15.10;99.90;;;;;;4899279;29;20205;-70
2022/04/11 10:28:47;;;;;;;3.67;2.10;;;15.20;99.90;;;;;;4904012;29;20222;-73
2022/04/11 10:31:15;;;;;;;3.30;1.97;;;15.30;99.90;;;;;;4895204;29;20299;-71
2022/04/11 10:33:54;;;;;;;3.43;1.97;;;15.30;99.90;;;;;;4906200;29;20206;-69
2022/04/11 10:36:38;;;;;;;4.33;1.80;;;15.40;99.90;;;;;;4895061;29;20203;-72
2022/04/11 10:39:17;;;;;;;3.80;2.00;;;15.40;99.90;;;;;;4889697;29;20586;-71
2022/04/11 10:41:56;;;;;;;2.80;2.10;;;15.20;99.90;;;;;;4904148;29;20275;-70
2022/04/11 10:44:41;;;;;;;6.73;2.27;;;15.20;99.90;;;;;;4899979;29;20223;-70
2022/04/11 10:47:11;;;;;;;5.93;2.53;;;15.30;99.90;;;;;;4897614;29;20206;-68
2022/04/11 10:49:50;;;;;;;3.73;2.10;;;15.50;99.90;;;;;;4896105;29;20219;-71
2022/04/11 10:52:36;;;;;;;4.00;1.87;;;15.60;99.90;;;;;;4904133;29;20211;-69
2022/04/11 10:55:15;;;;;;;4.53;2.20;;;15.60;99.90;;;;;;4893702;29;20212;-70
2022/04/11 10:57:44;;;;;;;5.27;2.37;;;15.70;99.90;;;;;;4901075;29;20591;-70
2022/04/11 11:00:23;;;;;;;5.23;2.23;;;15.70;99.90;;;;;;4906448;29;20641;-71
2022/04/11 11:02:57;;;;;;;5.30;2.53;;;15.80;99.90;;;;;;4901163;29;20694;-72
2022/04/11 11:05:24;;;;;;;4.77;2.00;;;15.90;99.90;;;;;;4901536;29;20229;-73
2022/04/11 11:08:13;;;;;;;4.00;2.10;;;15.90;99.90;;;;;;4900002;29;20200;-71
2022/04/11 11:10:50;;;;;;;7.80;2.40;;;15.90;99.90;;;;;;4903070;29;20212;-69
2022/04/11 11:13:32;;;;;;;2.93;2.33;;;15.90;99.90;;;;;;4898910;29;20202;-73
2022/04/11 11:16:08;;;;;;;4.47;2.23;;;15.80;99.90;;;;;;4902134;29;20728;-74
2022/04/11 11:18:53;;;;;;;4.50;2.60;;;15.90;99.90;;;;;;4903651;29;20220;-71
2022/04/11 11:21:47;;;;;;;6.27;2.80;;;15.90;99.90;;;;;;4890767;29;20204;-71
2022/04/11 11:24:15;;;;;;;5.47;2.80;;;16.00;99.90;;;;;;4897320;29;20239;-68
2022/04/11 11:26:47;;;;;;;4.53;2.90;;;16.00;99.90;;;;;;4903940;29;20659;-72
2022/04/11 11:29:21;;;;;;;3.33;2.40;;;16.10;99.90;;;;;;4909634;29;20574;-72
2022/04/11 11:31:53;;;;;;;5.40;2.77;;;16.10;99.90;;;;;;4903918;29;20196;-70
2022/04/11 11:34:21;;;;;;;5.27;2.97;;;16.20;99.90;;;;;;4906692;29;20306;-69
2022/04/11 11:36:48;;;;;;;6.70;2.63;;;16.40;99.90;;;;;;4913560;29;20226;-72
2022/04/11 11:39:19;;;;;;;3.93;2.43;;;16.50;99.90;;;;;;4900813;29;20694;-70
2022/04/11 11:41:51;;;;;;;10.37;2.73;;;16.60;99.90;;;;;;4894217;29;20209;-70
2022/04/11 11:44:19;;;;;;;6.13;3.37;;;16.60;99.90;;;;;;4917133;29;20309;-69
2022/04/11 11:46:53;;;;;;;7.43;2.70;;;16.60;99.90;;;;;;4908403;29;20677;-69
2022/04/11 11:49:21;;;;;;;5.77;4.20;;;16.70;99.90;;;;;;4904196;29;20224;-69
2022/04/11 11:51:48;;;;;;;7.33;3.10;;;16.90;99.90;;;;;;4921660;29;20197;-70
2022/04/11 11:54:30;;;;;;;6.57;3.20;;;16.80;99.90;;;;;;4904813;29;20210;-70
2022/04/11 11:56:57;;;;;;;3.03;2.73;;;16.70;99.90;;;;;;4903658;29;20710;-73
2022/04/11 11:59:29;;;;;;;4.93;2.73;;;16.90;99.90;;;;;;4912489;29;20220;-68
2022/04/11 12:04:41;;;;;;;3.30;2.63;;;16.70;99.90;;;;;;4904842;29;20319;-72
2022/04/11 12:07:08;;;;;;;6.47;3.27;;;16.80;99.90;;;;;;4905742;29;20208;-68
2022/04/11 12:09:36;;;;;;;3.80;2.73;;;16.90;99.90;;;;;;4916893;29;20216;-69
2022/04/11 12:12:04;;;;;;;4.27;3.20;;;17.10;99.90;;;;;;4889778;29;20291;-69
2022/04/11 12:15:06;;;;;;;10.50;3.30;;;17.10;99.90;;;;;;4905805;29;20765;-69
2022/04/11 12:17:42;;;;;;;6.30;3.10;;;17.20;99.90;;;;;;4900514;29;20223;-68
2022/04/11 12:20:19;;;;;;;5.40;3.10;;;17.30;99.90;;;;;;4903309;29;20699;-68
2022/04/11 12:23:05;;;;;;;5.17;2.80;;;17.40;99.90;;;;;;4909061;29;20207;-69
2022/04/11 12:25:37;;;;;;;5.63;3.00;;;17.50;99.90;;;;;;4902850;29;20271;-71
2022/04/11 12:28:13;;;;;;;6.63;3.20;;;17.60;99.90;;;;;;4904081;29;20210;-70
2022/04/11 12:30:44;;;;;;;6.50;3.43;;;17.40;99.90;;;;;;4904515;29;20224;-72
2022/04/11 12:33:33;;;;;;;5.53;3.63;;;16.90;99.90;;;;;;4905186;29;20282;-71
2022/04/11 12:36:19;;;;;;;5.87;3.43;;;16.90;99.90;;;;;;4904011;29;20203;-72
2022/04/11 12:38:50;;;;;;;5.53;3.20;;;17.00;99.90;;;;;;4904696;29;20708;-70
2022/04/11 12:41:34;;;;;;;3.60;2.93;;;17.00;99.90;;;;;;4904518;29;20211;-70
2022/04/11 12:44:18;;;;;;;4.23;2.83;;;17.00;99.90;;;;;;4903865;29;20216;-70
2022/04/11 12:47:00;;;;;;;4.83;2.60;;;17.20;99.90;;;;;;4901491;29;20200;-69
2022/04/11 12:49:50;;;;;;;5.87;3.00;;;17.30;99.90;;;;;;4904417;29;20315;-70
2022/04/11 12:52:18;;;;;;;3.53;2.77;;;17.30;99.90;;;;;;4903631;29;20413;-71
2022/04/11 12:54:50;;;;;;;7.33;2.60;;;17.20;99.90;;;;;;4907536;29;20200;-70
2022/04/11 12:57:26;;;;;;;4.30;2.70;;;17.30;99.90;;;;;;4919479;29;20200;-70
2022/04/11 12:59:53;;;;;;;5.27;2.80;;;17.30;99.90;;;;;;4903881;29;20231;-69
2022/04/11 13:02:27;;;;;;;3.37;2.60;;;17.50;99.90;;;;;;4919936;29;20211;-67